X  Close Metar Aviation Weather Data     EINN Shannon Airport
Temperature
7°C Temperature
6°C Dewpoint
93% Humidity



Wind
3 KM/H
2 MPH
1 M/S
2 KTS



Calm
N
Current Conditions

Mostly Scattered Clouds Mostly Scattered Clouds
Pressure 1028.92 (hPa) - 30.38 (inHg)
Visibility 6.2 (mile) - 10 (km)
Airport
Airport-code EINN

Location: Shannon Airport
Distance: 177 (km)

Metar:
EINN 160930Z VRB02KT 9999 SCT035 BKN045 07/06 Q1029 NOSIG

Time: 16-01-2022 08:30 -01